createdAt,value
2019-03-12T00:01:10.534Z,2.89
2019-03-12T00:02:10.463Z,2.89
2019-03-12T00:04:03.204Z,3.01
2019-03-12T00:05:03.131Z,2.81
2019-03-12T00:06:55.930Z,2.79
2019-03-12T00:07:55.852Z,2.87
2019-03-12T00:09:48.678Z,2.86
2019-03-12T00:10:48.573Z,2.87
2019-03-12T00:12:41.341Z,2.92
2019-03-12T00:13:41.276Z,2.94
2019-03-12T00:15:34.054Z,2.95
2019-03-12T00:16:33.967Z,2.90
2019-03-12T00:18:28.442Z,2.89
2019-03-12T00:19:26.679Z,2.95
2019-03-12T00:21:19.446Z,2.98
2019-03-12T00:22:19.368Z,3.01
2019-03-12T00:24:12.677Z,2.98
2019-03-12T00:25:12.591Z,3.01
2019-03-12T00:27:05.412Z,2.99
2019-03-12T00:28:05.357Z,3.04
2019-03-12T00:29:58.197Z,2.99
2019-03-12T00:30:58.065Z,3.01
2019-03-12T00:32:50.823Z,2.99
2019-03-12T00:33:50.743Z,2.95
2019-03-12T00:35:43.540Z,2.97
2019-03-12T00:36:43.474Z,2.92
2019-03-12T00:38:36.186Z,2.89
2019-03-12T00:39:36.105Z,2.92
2019-03-12T00:41:28.871Z,2.94
2019-03-12T00:42:28.792Z,2.90
2019-03-12T00:44:21.566Z,2.87
2019-03-12T00:45:21.491Z,2.89
2019-03-12T00:47:14.260Z,2.98
2019-03-12T00:48:14.164Z,2.90
2019-03-12T00:50:06.979Z,2.83
2019-03-12T00:51:06.871Z,2.83
2019-03-12T00:52:59.649Z,2.84
2019-03-12T00:53:59.622Z,2.84
2019-03-12T00:55:52.332Z,2.94
2019-03-12T00:56:52.244Z,2.87
2019-03-12T00:58:45.007Z,2.90
2019-03-12T00:59:44.935Z,2.84
2019-03-12T01:01:37.702Z,2.87
2019-03-12T01:02:37.617Z,2.89
2019-03-12T01:04:30.370Z,2.98
2019-03-12T01:05:30.292Z,2.99
2019-03-12T01:07:23.137Z,2.97
2019-03-12T01:08:22.998Z,3.05
2019-03-12T01:10:15.871Z,2.97
2019-03-12T01:11:15.688Z,3.05
2019-03-12T01:13:08.474Z,3.04
2019-03-12T01:14:08.382Z,3.01
2019-03-12T01:16:01.151Z,3.04
2019-03-12T01:17:01.096Z,3.02
2019-03-12T01:18:53.835Z,3.02
2019-03-12T01:19:53.762Z,3.07
2019-03-12T01:21:46.524Z,2.99
2019-03-12T01:22:46.449Z,2.99
2019-03-12T01:24:39.203Z,3.02
2019-03-12T01:25:39.197Z,3.04
2019-03-12T01:27:31.934Z,3.08
2019-03-12T01:28:31.852Z,3.08
2019-03-12T01:30:24.648Z,3.08
2019-03-12T01:31:24.571Z,3.13
2019-03-12T01:33:17.344Z,3.16
2019-03-12T01:34:17.329Z,3.15
2019-03-12T01:36:10.016Z,3.17
2019-03-12T01:37:09.944Z,3.25
2019-03-12T01:39:02.762Z,3.22
2019-03-12T01:40:02.694Z,3.15
2019-03-12T01:41:55.491Z,3.19
2019-03-12T01:42:55.441Z,3.15
2019-03-12T01:44:48.166Z,3.17
2019-03-12T01:45:48.169Z,3.20
2019-03-12T01:47:40.865Z,3.20
2019-03-12T01:48:40.777Z,3.19
2019-03-12T01:50:33.606Z,3.26
2019-03-12T01:51:33.537Z,3.19
2019-03-12T01:53:26.308Z,3.37
2019-03-12T01:54:26.213Z,3.31
2019-03-12T01:56:40.335Z,3.33
2019-03-12T01:57:40.274Z,3.34
2019-03-12T01:59:33.004Z,3.33
2019-03-12T02:00:32.987Z,3.30
2019-03-12T02:02:25.725Z,3.46
2019-03-12T02:03:25.610Z,3.46
2019-03-12T02:05:18.382Z,3.44
2019-03-12T02:06:18.331Z,3.45
2019-03-12T02:08:11.069Z,3.42
2019-03-12T02:09:10.978Z,3.53
2019-03-12T02:11:03.738Z,3.53
2019-03-12T02:12:03.715Z,3.45
2019-03-12T02:13:56.456Z,3.52
2019-03-12T02:14:56.376Z,3.53
2019-03-12T02:16:49.143Z,3.52
2019-03-12T02:17:49.116Z,3.59
2019-03-12T02:19:41.828Z,3.54
2019-03-12T02:20:41.764Z,3.60
2019-03-12T02:22:34.555Z,3.57
2019-03-12T02:23:34.474Z,3.59
2019-03-12T02:25:27.249Z,3.54
2019-03-12T02:26:27.169Z,3.63
2019-03-12T02:28:19.944Z,3.64
2019-03-12T02:29:19.883Z,3.59
2019-03-12T02:31:12.636Z,3.63
2019-03-12T02:32:12.629Z,3.60
2019-03-12T02:34:05.322Z,3.62
2019-03-12T02:35:05.538Z,3.60
2019-03-12T02:36:58.011Z,3.72
2019-03-12T02:37:57.945Z,3.72
2019-03-12T02:39:50.715Z,3.57
2019-03-12T02:40:50.640Z,3.72
2019-03-12T02:42:43.429Z,3.72
2019-03-12T02:43:43.303Z,3.74
2019-03-12T02:45:36.053Z,3.71
2019-03-12T02:46:36.011Z,3.67
2019-03-12T02:48:28.763Z,3.75
2019-03-12T02:49:28.692Z,3.74
2019-03-12T02:51:21.441Z,3.75
2019-03-12T02:52:21.365Z,3.74
2019-03-12T02:54:14.175Z,3.78
2019-03-12T02:55:14.248Z,3.75
2019-03-12T02:57:06.922Z,3.74
2019-03-12T02:58:06.830Z,3.82
2019-03-12T02:59:59.598Z,3.77
2019-03-12T03:00:59.698Z,3.88
2019-03-12T03:02:52.365Z,3.90
2019-03-12T03:03:52.246Z,3.82
2019-03-12T03:05:45.027Z,3.80
2019-03-12T03:06:44.957Z,3.88
2019-03-12T03:08:37.709Z,3.71
2019-03-12T03:09:37.631Z,3.80
2019-03-12T03:11:30.382Z,3.82
2019-03-12T03:12:30.320Z,3.90
2019-03-12T03:14:23.088Z,3.88
2019-03-12T03:15:23.018Z,3.86
2019-03-12T03:17:15.789Z,3.89
2019-03-12T03:18:15.721Z,3.96
2019-03-12T03:20:08.475Z,3.93
2019-03-12T03:21:08.393Z,3.92
2019-03-12T03:23:01.252Z,3.96
2019-03-12T03:24:01.167Z,3.98
2019-03-12T03:25:53.951Z,3.92
2019-03-12T03:26:53.856Z,3.96
2019-03-12T03:28:46.625Z,4.02
2019-03-12T03:29:46.549Z,4.07
2019-03-12T03:31:39.296Z,4.07
2019-03-12T03:32:39.248Z,4.08
2019-03-12T03:34:32.029Z,4.08
2019-03-12T03:35:31.946Z,4.02
2019-03-12T03:37:24.711Z,4.07
2019-03-12T03:38:24.644Z,4.07
2019-03-12T03:40:17.534Z,4.10
2019-03-12T03:41:17.494Z,4.07
2019-03-12T03:43:10.339Z,4.04
2019-03-12T03:44:10.159Z,4.06
2019-03-12T03:46:02.916Z,4.07
2019-03-12T03:47:02.857Z,3.99
2019-03-12T03:48:55.607Z,4.07
2019-03-12T03:49:55.545Z,4.04
2019-03-12T03:51:48.339Z,4.02
2019-03-12T03:52:48.227Z,4.06
2019-03-12T03:54:41.012Z,4.02
2019-03-12T03:55:40.914Z,4.07
2019-03-12T03:57:33.666Z,4.10
2019-03-12T03:58:33.593Z,4.07
2019-03-12T04:00:26.402Z,4.08
2019-03-12T04:01:26.290Z,4.14
2019-03-12T04:03:19.068Z,4.14
2019-03-12T04:04:18.996Z,4.18
2019-03-12T04:06:11.735Z,4.16
2019-03-12T04:07:11.659Z,4.18
2019-03-12T04:09:04.904Z,4.18
2019-03-12T04:10:04.405Z,4.14
2019-03-12T04:11:57.174Z,4.24
2019-03-12T04:12:57.098Z,4.18
2019-03-12T04:14:49.885Z,4.07
2019-03-12T04:15:49.796Z,4.13
2019-03-12T04:17:42.595Z,4.11
2019-03-12T04:18:42.499Z,4.14
2019-03-12T04:20:35.262Z,4.11
2019-03-12T04:21:35.180Z,4.10
2019-03-12T04:23:27.953Z,4.08
2019-03-12T04:24:27.900Z,4.08
2019-03-12T04:26:20.633Z,4.11
2019-03-12T04:27:20.570Z,4.11
2019-03-12T04:29:13.355Z,4.11
2019-03-12T04:30:13.253Z,4.13
2019-03-12T04:32:06.007Z,4.10
2019-03-12T04:33:05.943Z,4.06
2019-03-12T04:34:58.723Z,4.10
2019-03-12T04:35:58.639Z,4.10
2019-03-12T04:37:51.436Z,4.10
2019-03-12T04:38:51.362Z,4.11
2019-03-12T04:40:44.123Z,4.06
2019-03-12T04:41:44.039Z,4.08
2019-03-12T04:43:36.823Z,4.06
2019-03-12T04:44:36.853Z,4.14
2019-03-12T04:46:29.532Z,4.11
2019-03-12T04:47:29.475Z,3.99
2019-03-12T04:49:22.268Z,4.11
2019-03-12T04:50:22.169Z,4.08
2019-03-12T04:52:14.946Z,4.10
2019-03-12T04:53:14.890Z,4.07
2019-03-12T04:55:07.655Z,4.00
2019-03-12T04:56:07.563Z,4.11
2019-03-12T04:58:00.313Z,4.08
2019-03-12T04:59:00.244Z,4.02
2019-03-12T05:00:53.082Z,4.07
2019-03-12T05:01:52.946Z,4.08
2019-03-12T05:03:45.715Z,4.06
2019-03-12T05:04:45.655Z,4.07
2019-03-12T05:06:38.426Z,4.00
2019-03-12T05:07:38.342Z,4.02
2019-03-12T05:09:31.120Z,4.04
2019-03-12T05:10:31.049Z,3.96
2019-03-12T05:12:24.071Z,4.00
2019-03-12T05:13:23.987Z,3.99
2019-03-12T05:15:16.771Z,4.04
2019-03-12T05:16:16.666Z,3.99
2019-03-12T05:18:09.466Z,4.00
2019-03-12T05:19:09.446Z,4.02
2019-03-12T05:21:02.167Z,4.06
2019-03-12T05:22:02.072Z,3.99
2019-03-12T05:23:54.893Z,4.08
2019-03-12T05:24:54.830Z,4.02
2019-03-12T05:26:47.586Z,3.86
2019-03-12T05:27:47.498Z,3.84
2019-03-12T05:29:40.298Z,3.92
2019-03-12T05:30:40.226Z,3.84
2019-03-12T05:32:33.001Z,3.88
2019-03-12T05:33:32.929Z,3.86
2019-03-12T05:35:25.674Z,3.96
2019-03-12T05:36:25.596Z,3.88
2019-03-12T05:38:18.387Z,3.88
2019-03-12T05:39:18.309Z,3.81
2019-03-12T05:41:12.321Z,3.84
2019-03-12T05:42:11.027Z,3.92
2019-03-12T05:44:03.774Z,3.90
2019-03-12T05:45:03.704Z,3.93
2019-03-12T05:46:56.474Z,4.07
2019-03-12T05:47:56.413Z,4.07
2019-03-12T05:49:49.380Z,4.07
2019-03-12T05:50:49.088Z,3.99
2019-03-12T05:52:41.916Z,3.95
2019-03-12T05:53:41.802Z,3.95
2019-03-12T05:55:34.575Z,3.96
2019-03-12T05:56:34.471Z,3.96
2019-03-12T05:58:27.230Z,3.93
2019-03-12T05:59:27.180Z,3.90
2019-03-12T06:01:19.928Z,3.92
2019-03-12T06:02:19.852Z,3.89
2019-03-12T06:04:12.650Z,3.93
2019-03-12T06:05:12.546Z,3.93
2019-03-12T06:07:05.339Z,3.92
2019-03-12T06:08:05.251Z,3.89
2019-03-12T06:09:58.028Z,4.04
2019-03-12T06:10:57.961Z,4.02
2019-03-12T06:12:50.736Z,4.07
2019-03-12T06:13:50.647Z,4.06
2019-03-12T06:15:43.455Z,4.04
2019-03-12T06:16:43.352Z,4.13
2019-03-12T06:18:36.106Z,4.17
2019-03-12T06:19:36.036Z,4.17
2019-03-12T06:21:28.813Z,4.34
2019-03-12T06:22:28.812Z,4.31
2019-03-12T06:24:21.497Z,4.32
2019-03-12T06:25:21.422Z,4.31
2019-03-12T06:27:14.232Z,4.29
2019-03-12T06:28:14.124Z,4.29
2019-03-12T06:30:06.917Z,4.28
2019-03-12T06:31:06.827Z,4.31
2019-03-12T06:32:59.617Z,4.46
2019-03-12T06:33:59.533Z,4.38
2019-03-12T06:35:54.338Z,4.43
2019-03-12T06:36:52.250Z,4.46
2019-03-12T06:38:45.042Z,4.47
2019-03-12T06:39:44.956Z,4.53
2019-03-12T06:41:37.737Z,4.53
2019-03-12T06:42:37.642Z,4.61
2019-03-12T06:44:30.461Z,4.65
2019-03-12T06:45:30.377Z,4.69
2019-03-12T06:47:23.321Z,4.67
2019-03-12T06:48:23.076Z,4.64
2019-03-12T06:50:15.843Z,4.61
2019-03-12T06:51:15.776Z,4.59
2019-03-12T06:53:09.432Z,4.68
2019-03-12T06:54:09.312Z,4.67
2019-03-12T06:56:02.087Z,4.67
2019-03-12T06:57:02.008Z,4.61
2019-03-12T06:58:54.810Z,4.64
2019-03-12T06:59:54.695Z,4.64
2019-03-12T07:01:47.508Z,4.62
2019-03-12T07:02:47.415Z,4.54
2019-03-12T07:04:40.197Z,4.71
2019-03-12T07:05:40.131Z,4.79
2019-03-12T07:07:33.061Z,4.80
2019-03-12T07:08:32.816Z,4.91
2019-03-12T07:10:25.562Z,4.83
2019-03-12T07:11:25.484Z,4.83
2019-03-12T07:13:18.262Z,4.80
2019-03-12T07:14:18.178Z,4.75
2019-03-12T07:16:10.956Z,4.79
2019-03-12T07:17:10.875Z,4.67
2019-03-12T07:19:03.637Z,4.62
2019-03-12T07:20:03.557Z,4.79
2019-03-12T07:21:56.372Z,5.08
2019-03-12T07:22:56.269Z,5.05
2019-03-12T07:24:49.023Z,5.05
2019-03-12T07:25:50.782Z,5.23
2019-03-12T07:27:41.720Z,5.05
2019-03-12T07:28:50.210Z,5.09
2019-03-12T07:30:34.434Z,5.11
2019-03-12T07:31:34.319Z,5.04
2019-03-12T07:33:27.134Z,5.01
2019-03-12T07:34:36.127Z,4.99
2019-03-12T07:36:19.809Z,4.91
2019-03-12T07:37:19.707Z,4.94
2019-03-12T07:39:12.470Z,5.05
2019-03-12T07:40:12.393Z,5.11
2019-03-12T07:42:05.360Z,5.09
2019-03-12T07:43:05.093Z,5.08
2019-03-12T07:44:57.849Z,5.08
2019-03-12T07:45:57.805Z,5.09
2019-03-12T07:47:50.564Z,5.08
2019-03-12T07:48:50.564Z,5.04
2019-03-12T07:50:43.295Z,5.05
2019-03-12T07:51:43.206Z,5.06
2019-03-12T07:53:36.116Z,5.19
2019-03-12T07:54:35.933Z,5.08
2019-03-12T07:56:28.671Z,5.24
2019-03-12T07:57:28.581Z,5.19
2019-03-12T07:59:21.384Z,5.42
2019-03-12T08:00:21.297Z,5.47
2019-03-12T08:02:14.067Z,5.37
2019-03-12T08:03:14.349Z,5.33
2019-03-12T08:05:06.768Z,5.51
2019-03-12T08:06:06.705Z,5.38
2019-03-12T08:07:59.494Z,5.45
2019-03-12T08:08:59.495Z,5.32
2019-03-12T08:10:52.168Z,5.29
2019-03-12T08:11:52.087Z,5.35
2019-03-12T08:13:44.873Z,5.44
2019-03-12T08:14:44.766Z,5.52
2019-03-12T08:16:37.853Z,5.42
2019-03-12T08:17:37.549Z,5.51
2019-03-12T08:19:30.345Z,5.44
2019-03-12T08:20:30.179Z,5.62
2019-03-12T08:22:23.015Z,5.74
2019-03-12T08:23:22.878Z,5.77
2019-03-12T08:25:15.635Z,5.87
2019-03-12T08:26:15.567Z,5.92
2019-03-12T08:28:08.454Z,5.93
2019-03-12T08:29:08.289Z,5.95
2019-03-12T08:31:01.203Z,5.95
2019-03-12T08:32:01.126Z,6.06
2019-03-12T08:33:53.902Z,6.01
2019-03-12T08:34:54.034Z,6.01
2019-03-12T08:36:46.828Z,5.96
2019-03-12T08:37:46.520Z,6.06
2019-03-12T08:39:39.393Z,6.21
2019-03-12T08:40:51.739Z,6.21
2019-03-12T08:42:32.215Z,6.20
2019-03-12T08:43:32.103Z,6.20
2019-03-12T08:45:24.997Z,6.38
2019-03-12T08:46:24.950Z,6.32
2019-03-12T08:48:17.888Z,6.27
2019-03-12T08:49:17.791Z,6.28
2019-03-12T08:51:10.546Z,6.28
2019-03-12T08:52:10.397Z,6.43
2019-03-12T08:54:03.174Z,6.40
2019-03-12T08:55:04.238Z,6.48
2019-03-12T08:56:55.869Z,6.75
2019-03-12T08:57:55.794Z,6.91
2019-03-12T08:59:48.833Z,7.01
2019-03-12T09:00:48.612Z,6.91
2019-03-12T09:02:41.338Z,6.72
2019-03-12T09:03:41.344Z,6.78
2019-03-12T09:05:34.053Z,7.12
2019-03-12T09:06:33.946Z,7.34
2019-03-12T09:08:26.703Z,7.84
2019-03-12T09:09:26.609Z,8.28
2019-03-12T09:11:19.386Z,8.60
2019-03-12T09:12:19.483Z,8.49
2019-03-12T09:14:12.105Z,8.14
2019-03-12T09:15:12.085Z,8.09
2019-03-12T09:17:04.854Z,7.89
2019-03-12T09:18:04.776Z,8.00
2019-03-12T09:19:57.554Z,7.91
2019-03-12T09:20:57.488Z,7.71
2019-03-12T09:22:50.239Z,7.21
2019-03-12T09:23:50.162Z,7.26
2019-03-12T09:25:42.983Z,7.36
2019-03-12T09:26:42.889Z,7.55
2019-03-12T09:28:35.831Z,8.09
2019-03-12T09:29:35.749Z,8.21
2019-03-12T09:31:28.591Z,8.42
2019-03-12T09:32:28.413Z,8.31
2019-03-12T09:34:21.215Z,8.70
2019-03-12T09:35:21.303Z,9.01
2019-03-12T09:37:14.108Z,9.78
2019-03-12T09:38:13.926Z,10.13
2019-03-12T09:40:06.745Z,10.52
2019-03-12T09:41:06.598Z,10.43
2019-03-12T09:42:59.519Z,10.32
2019-03-12T09:43:59.752Z,10.28
2019-03-12T09:45:52.156Z,10.34
2019-03-12T09:46:52.186Z,10.22
2019-03-12T09:48:44.951Z,10.31
2019-03-12T09:49:44.812Z,10.42
2019-03-12T09:51:38.180Z,9.96
2019-03-12T09:52:37.774Z,9.96
2019-03-12T09:54:30.663Z,10.01
2019-03-12T09:55:30.562Z,9.96
2019-03-12T09:57:23.412Z,10.06
2019-03-12T09:58:23.280Z,10.06
2019-03-12T10:00:16.889Z,10.38
2019-03-12T10:01:16.179Z,10.18
2019-03-12T10:03:08.871Z,9.81
2019-03-12T10:04:08.749Z,9.65
2019-03-12T10:06:01.516Z,10.24
2019-03-12T10:07:01.436Z,10.46
2019-03-12T10:08:54.395Z,10.28
2019-03-12T10:09:54.137Z,10.06
2019-03-12T10:11:47.104Z,9.89
2019-03-12T10:12:47.517Z,9.88
2019-03-12T10:14:39.683Z,9.89
2019-03-12T10:15:40.218Z,10.22
2019-03-12T10:17:33.231Z,10.51
2019-03-12T10:18:33.263Z,10.44
2019-03-12T10:20:26.099Z,10.26
2019-03-12T10:21:25.967Z,9.99
2019-03-12T10:23:18.829Z,9.52
2019-03-12T10:24:18.691Z,9.27
2019-03-12T10:26:11.664Z,9.23
2019-03-12T10:27:11.529Z,9.41
2019-03-12T10:29:04.266Z,9.38
2019-03-12T10:30:04.231Z,9.31
2019-03-12T10:31:57.109Z,10.14
2019-03-12T10:32:56.998Z,10.99
2019-03-12T10:34:49.795Z,12.33
2019-03-12T10:35:49.728Z,12.29
2019-03-12T10:37:42.672Z,12.94
2019-03-12T10:38:42.430Z,12.40
2019-03-12T10:40:35.254Z,11.39
2019-03-12T10:41:35.164Z,10.94
2019-03-12T10:43:27.894Z,10.35
2019-03-12T10:44:27.836Z,10.31
2019-03-12T10:46:20.776Z,10.01
2019-03-12T10:47:20.736Z,10.06
2019-03-12T10:49:13.574Z,10.02
2019-03-12T10:50:13.365Z,10.26
2019-03-12T10:52:06.206Z,10.39
2019-03-12T10:53:06.074Z,10.47
2019-03-12T10:55:11.778Z,10.62
2019-03-12T10:55:58.804Z,10.42
2019-03-12T10:57:51.593Z,10.20
2019-03-12T10:58:51.514Z,10.09
2019-03-12T11:00:44.377Z,9.89
2019-03-12T11:01:44.295Z,9.83
2019-03-12T11:03:37.089Z,9.92
2019-03-12T11:04:37.022Z,10.44
2019-03-12T11:06:29.937Z,10.34
2019-03-12T11:07:29.836Z,10.25
2019-03-12T11:09:22.601Z,10.07
2019-03-12T11:10:22.538Z,10.04
2019-03-12T11:12:15.375Z,10.49
2019-03-12T11:13:15.306Z,10.65
2019-03-12T11:15:08.081Z,10.57
2019-03-12T11:16:07.982Z,10.43
2019-03-12T11:18:00.815Z,10.47
2019-03-12T11:19:00.680Z,10.32
2019-03-12T11:20:53.459Z,9.98
2019-03-12T11:21:53.396Z,9.89
2019-03-12T11:23:46.187Z,9.89
2019-03-12T11:24:46.102Z,9.85
2019-03-12T11:26:38.898Z,9.95
2019-03-12T11:27:38.811Z,10.01
2019-03-12T11:29:31.697Z,10.09
2019-03-12T11:30:31.884Z,9.95
2019-03-12T11:32:24.379Z,10.09
2019-03-12T11:33:24.463Z,10.06
2019-03-12T11:35:17.069Z,10.01
2019-03-12T11:36:17.078Z,9.86
2019-03-12T11:38:09.885Z,9.91
2019-03-12T11:39:09.697Z,9.89
2019-03-12T11:41:02.486Z,10.17
2019-03-12T11:42:02.405Z,10.22
2019-03-12T11:43:55.186Z,10.24
2019-03-12T11:44:55.143Z,10.35
2019-03-12T11:46:47.926Z,10.32
2019-03-12T11:47:48.287Z,10.13
2019-03-12T11:49:40.623Z,10.14
2019-03-12T11:50:40.556Z,10.13
2019-03-12T11:52:33.424Z,10.04
2019-03-12T11:53:33.445Z,10.14
2019-03-12T11:55:26.868Z,10.06
2019-03-12T11:56:26.812Z,10.02
2019-03-12T11:58:19.601Z,10.36
2019-03-12T11:59:19.579Z,10.44
2019-03-12T12:01:12.336Z,10.66
2019-03-12T12:02:12.293Z,10.80
2019-03-12T12:04:05.209Z,10.99
2019-03-12T12:05:05.057Z,10.84
2019-03-12T12:06:57.940Z,10.39
2019-03-12T12:07:58.126Z,10.46
2019-03-12T12:09:50.639Z,10.47
2019-03-12T12:10:50.598Z,10.44
2019-03-12T12:12:43.624Z,10.32
2019-03-12T12:13:43.501Z,10.35
2019-03-12T12:15:36.075Z,10.52
2019-03-12T12:16:36.209Z,10.65
2019-03-12T12:18:29.097Z,10.65
2019-03-12T12:19:28.768Z,10.68
2019-03-12T12:21:22.412Z,10.60
2019-03-12T12:22:21.875Z,10.62
2019-03-12T12:24:14.296Z,10.76
2019-03-12T12:25:14.242Z,10.69
2019-03-12T12:27:06.944Z,10.58
2019-03-12T12:28:06.871Z,10.46
2019-03-12T12:30:00.738Z,10.54
2019-03-12T12:32:53.168Z,10.22
2019-03-12T12:33:52.559Z,10.14
2019-03-12T12:35:45.386Z,10.09
2019-03-12T12:36:45.307Z,9.98
2019-03-12T12:38:38.504Z,10.13
2019-03-12T12:39:38.381Z,9.96
2019-03-12T12:41:31.190Z,9.98
2019-03-12T12:42:31.144Z,10.02
2019-03-12T12:44:23.922Z,10.04
2019-03-12T12:45:23.727Z,10.14
2019-03-12T12:47:16.561Z,10.07
2019-03-12T12:48:16.547Z,10.01
2019-03-12T12:50:09.489Z,9.98
2019-03-12T12:51:09.553Z,10.04
2019-03-12T12:53:02.259Z,10.07
2019-03-12T12:54:02.090Z,10.02
2019-03-12T12:55:54.953Z,10.35
2019-03-12T12:56:54.937Z,10.35
2019-03-12T12:58:47.709Z,10.36
2019-03-12T12:59:47.611Z,10.38
2019-03-12T13:01:40.360Z,10.38
2019-03-12T13:02:40.281Z,10.51
2019-03-12T13:04:33.160Z,10.49
2019-03-12T13:05:32.998Z,10.63
2019-03-12T13:07:25.813Z,10.51
2019-03-12T13:08:25.725Z,10.57
2019-03-12T13:10:18.669Z,10.69
2019-03-12T13:11:18.462Z,10.63
2019-03-12T13:13:11.313Z,10.66
2019-03-12T13:14:11.152Z,10.66
2019-03-12T13:16:04.262Z,10.70
2019-03-12T13:17:04.199Z,10.65
2019-03-12T13:18:56.687Z,10.60
2019-03-12T13:19:56.606Z,10.57
2019-03-12T13:21:49.836Z,10.63
2019-03-12T13:22:49.585Z,10.51
2019-03-12T13:25:43.228Z,10.58
2019-03-12T13:27:42.119Z,10.60
2019-03-12T13:28:35.907Z,10.63
2019-03-12T13:30:28.975Z,10.58
2019-03-12T13:31:28.880Z,10.49
2019-03-12T13:33:22.209Z,10.42
2019-03-12T13:34:21.903Z,10.46
2019-03-12T13:36:14.809Z,10.49
2019-03-12T13:40:07.421Z,10.81
2019-03-12T13:42:00.653Z,10.86
2019-03-12T13:43:00.348Z,10.81
2019-03-12T13:44:53.571Z,10.86
2019-03-12T13:45:53.015Z,10.66
2019-03-12T13:47:46.027Z,10.69
2019-03-12T13:48:46.253Z,10.90
2019-03-12T13:50:38.630Z,10.87
2019-03-12T13:51:38.530Z,10.95
2019-03-12T13:53:31.502Z,10.88
2019-03-12T13:54:31.938Z,10.84
2019-03-12T13:56:26.545Z,10.93
2019-03-12T13:57:26.214Z,10.88
2019-03-12T13:59:18.824Z,10.86
2019-03-12T14:02:11.621Z,10.88
2019-03-12T14:03:11.618Z,10.81
2019-03-12T14:05:05.776Z,10.83
2019-03-12T14:06:05.289Z,10.73
2019-03-12T14:07:59.367Z,10.60
2019-03-12T14:08:59.150Z,10.49
2019-03-12T14:10:52.056Z,10.43
2019-03-12T14:11:53.385Z,10.60
2019-03-12T14:13:45.613Z,10.58
2019-03-12T14:14:45.027Z,10.52
2019-03-12T14:16:37.773Z,10.63
2019-03-12T14:17:37.714Z,10.60
2019-03-12T14:19:30.538Z,10.51
2019-03-12T14:20:30.503Z,10.46
2019-03-12T14:22:23.562Z,10.65
2019-03-12T14:23:24.338Z,10.46
2019-03-12T14:25:16.462Z,10.35
2019-03-12T14:26:16.575Z,10.43
2019-03-12T14:28:09.224Z,10.54
2019-03-12T14:29:09.381Z,10.58
2019-03-12T14:31:02.066Z,10.46
2019-03-12T14:32:02.166Z,10.47
2019-03-12T14:34:54.884Z,10.35
2019-03-12T14:36:47.290Z,10.09
2019-03-12T14:37:47.218Z,10.01
2019-03-12T14:39:40.038Z,10.18
2019-03-12T14:40:39.947Z,10.22
2019-03-12T14:42:32.854Z,10.22
2019-03-12T14:43:32.735Z,10.14
2019-03-12T14:45:25.772Z,10.16
2019-03-12T14:46:25.447Z,10.17
2019-03-12T14:48:18.327Z,10.32
2019-03-12T14:49:18.245Z,10.25
2019-03-12T14:51:11.050Z,10.31
2019-03-12T14:52:11.087Z,10.36
2019-03-12T14:54:03.750Z,10.28
2019-03-12T14:55:03.683Z,10.20
2019-03-12T14:56:56.565Z,10.09
2019-03-12T14:57:56.448Z,10.11
2019-03-12T14:59:49.257Z,9.98
2019-03-12T15:00:49.150Z,9.98
2019-03-12T15:02:41.956Z,9.91
2019-03-12T15:03:41.870Z,9.96
2019-03-12T15:05:34.679Z,9.91
2019-03-12T15:06:34.609Z,10.06
2019-03-12T15:08:27.423Z,10.10
2019-03-12T15:09:27.345Z,10.18
2019-03-12T15:11:20.386Z,10.28
2019-03-12T15:12:20.239Z,10.34
2019-03-12T15:14:13.023Z,10.26
2019-03-12T15:15:12.947Z,10.06
2019-03-12T15:17:05.810Z,10.17
2019-03-12T15:18:05.687Z,10.13
2019-03-12T15:19:58.466Z,10.18
2019-03-12T15:20:58.365Z,10.20
2019-03-12T15:22:51.244Z,9.99
2019-03-12T15:23:51.074Z,10.07
2019-03-12T15:25:43.830Z,10.17
2019-03-12T15:26:43.766Z,10.09
2019-03-12T15:28:36.557Z,10.14
2019-03-12T15:29:36.472Z,10.14
2019-03-12T15:31:29.261Z,10.16
2019-03-12T15:32:29.164Z,10.04
2019-03-12T15:34:22.076Z,9.92
2019-03-12T15:35:22.063Z,9.91
2019-03-12T15:37:14.679Z,9.86
2019-03-12T15:38:14.601Z,9.80
2019-03-12T15:40:07.492Z,9.68
2019-03-12T15:41:07.306Z,9.77
2019-03-12T15:43:00.349Z,9.78
2019-03-12T15:44:00.263Z,9.75
2019-03-12T15:45:53.033Z,9.67
2019-03-12T15:46:52.959Z,9.73
2019-03-12T15:48:45.838Z,9.74
2019-03-12T15:49:45.728Z,9.71
2019-03-12T15:51:38.586Z,9.74
2019-03-12T15:52:38.455Z,9.74
2019-03-12T15:54:31.238Z,9.74
2019-03-12T15:55:31.122Z,9.68
2019-03-12T15:57:23.912Z,9.73
2019-03-12T15:58:23.841Z,9.73
2019-03-12T16:00:16.739Z,9.74
2019-03-12T16:01:16.561Z,9.70
2019-03-12T16:03:09.371Z,9.59
2019-03-12T16:04:09.269Z,9.62
2019-03-12T16:06:02.110Z,9.53
2019-03-12T16:07:02.102Z,9.60
2019-03-12T16:08:55.346Z,9.60
2019-03-12T16:09:54.739Z,9.52
2019-03-12T16:11:47.474Z,9.50
2019-03-12T16:12:47.447Z,9.63
2019-03-12T16:14:40.188Z,9.65
2019-03-12T16:15:40.455Z,9.52
2019-03-12T16:17:33.067Z,9.56
2019-03-12T16:18:33.013Z,9.58
2019-03-12T16:20:26.240Z,9.52
2019-03-12T16:21:26.171Z,9.55
2019-03-12T16:23:19.010Z,9.44
2019-03-12T16:24:18.941Z,9.42
2019-03-12T16:26:12.651Z,9.45
2019-03-12T16:27:11.766Z,9.45
2019-03-12T16:29:04.518Z,9.42
2019-03-12T16:30:04.358Z,9.41
2019-03-12T16:31:57.305Z,9.42
2019-03-12T16:32:57.286Z,9.40
2019-03-12T16:34:49.907Z,9.41
2019-03-12T16:35:49.817Z,9.32
2019-03-12T16:37:42.816Z,9.37
2019-03-12T16:38:42.896Z,9.31
2019-03-12T16:40:35.531Z,9.35
2019-03-12T16:41:35.451Z,9.24
2019-03-12T16:43:29.513Z,9.20
2019-03-12T16:44:28.324Z,9.15
2019-03-12T16:46:21.064Z,9.19
2019-03-12T16:47:20.998Z,9.19
2019-03-12T16:49:13.819Z,9.16
2019-03-12T16:50:13.829Z,9.12
2019-03-12T16:52:06.662Z,9.04
2019-03-12T16:53:06.515Z,9.01
2019-03-12T16:54:59.277Z,9.12
2019-03-12T16:55:59.198Z,9.04
2019-03-12T16:57:51.986Z,9.06
2019-03-12T16:58:51.922Z,9.04
2019-03-12T17:00:44.709Z,9.03
2019-03-12T17:01:44.625Z,9.01
2019-03-12T17:03:37.607Z,8.97
2019-03-12T17:04:38.010Z,9.08
2019-03-12T17:06:30.157Z,8.93
2019-03-12T17:07:30.074Z,8.97
2019-03-12T17:09:22.976Z,9.00
2019-03-12T17:10:22.924Z,9.00
2019-03-12T17:12:15.746Z,8.97
2019-03-12T17:13:15.647Z,8.93
2019-03-12T17:15:08.463Z,8.89
2019-03-12T17:16:08.461Z,8.86
2019-03-12T17:18:01.137Z,8.85
2019-03-12T17:19:01.097Z,8.85
2019-03-12T17:20:53.885Z,8.83
2019-03-12T17:21:53.864Z,8.76
2019-03-12T17:23:46.623Z,8.80
2019-03-12T17:24:46.567Z,8.80
2019-03-12T17:26:39.388Z,8.85
2019-03-12T17:27:39.272Z,8.80
2019-03-12T17:29:32.048Z,8.89
2019-03-12T17:30:31.970Z,8.88
2019-03-12T17:32:25.244Z,8.94
2019-03-12T17:33:24.753Z,8.93
2019-03-12T17:35:17.812Z,8.83
2019-03-12T17:36:17.414Z,8.86
2019-03-12T17:38:10.202Z,8.89
2019-03-12T17:39:10.102Z,8.85
2019-03-12T17:41:02.964Z,8.79
2019-03-12T17:42:02.868Z,8.83
2019-03-12T17:43:57.847Z,8.86
2019-03-12T17:44:55.544Z,8.94
2019-03-12T17:46:48.470Z,8.93
2019-03-12T17:47:48.338Z,8.93
2019-03-12T17:49:41.204Z,8.88
2019-03-12T17:50:40.966Z,8.89
2019-03-12T17:52:33.732Z,8.88
2019-03-12T17:53:33.657Z,8.79
2019-03-12T17:55:26.424Z,8.86
2019-03-12T17:56:26.349Z,8.91
2019-03-12T17:58:19.180Z,8.85
2019-03-12T17:59:19.063Z,8.82
2019-03-12T18:01:11.851Z,8.83
2019-03-12T18:02:11.830Z,8.83
2019-03-12T18:04:04.948Z,8.79
2019-03-12T18:05:04.857Z,8.83
2019-03-12T18:06:57.612Z,8.76
2019-03-12T18:07:57.538Z,8.78
2019-03-12T18:09:50.359Z,8.82
2019-03-12T18:10:50.267Z,8.78
2019-03-12T18:12:43.102Z,8.86
2019-03-12T18:13:42.958Z,8.76
2019-03-12T18:15:35.742Z,8.82
2019-03-12T18:16:40.966Z,8.78
2019-03-12T18:18:28.455Z,8.76
2019-03-12T18:19:28.389Z,8.80
2019-03-12T18:21:21.145Z,8.73
2019-03-12T18:22:21.156Z,8.71
2019-03-12T18:24:13.881Z,8.67
2019-03-12T18:25:13.774Z,8.68
2019-03-12T18:27:06.555Z,8.68
2019-03-12T18:28:06.550Z,8.68
2019-03-12T18:29:59.254Z,8.64
2019-03-12T18:30:59.223Z,8.70
2019-03-12T18:32:52.003Z,8.73
2019-03-12T18:33:52.194Z,8.68
2019-03-12T18:35:44.905Z,8.71
2019-03-12T18:36:44.776Z,8.71
2019-03-12T18:38:37.534Z,8.73
2019-03-12T18:39:37.471Z,8.68
2019-03-12T18:41:30.421Z,8.67
2019-03-12T18:42:30.221Z,8.63
2019-03-12T18:44:23.133Z,8.71
2019-03-12T18:45:22.917Z,8.71
2019-03-12T18:47:19.032Z,8.70
2019-03-12T18:48:15.628Z,8.67
2019-03-12T18:50:08.516Z,8.58
2019-03-12T18:51:08.406Z,8.63
2019-03-12T18:53:01.176Z,8.54
2019-03-12T18:54:01.109Z,8.46
2019-03-12T18:55:53.966Z,8.54
2019-03-12T18:56:53.866Z,8.54
2019-03-12T18:58:46.630Z,8.49
2019-03-12T18:59:46.562Z,8.49
2019-03-12T19:01:39.428Z,8.55
2019-03-12T19:02:39.245Z,8.49
2019-03-12T19:04:32.054Z,8.47
2019-03-12T19:05:32.115Z,8.46
2019-03-12T19:07:24.727Z,8.45
2019-03-12T19:08:24.635Z,8.42